Grant, Indiana
Current Conditions -  °F | °C
As of 9:55 AM on Saturday 20 Dec 2014 (Local Time) from KDCY Reporting Station
Overcast Overcast  
Wind Chill: 26°   Ceiling: 5000
Heat Index: 31°   Visibility: 7mi
Dew Point: 26°   Wind: 5mph
Humidity: 81%   Direction: 100°E
Pressure: 30.3"   Gusts: NA
Location:  39.0399°N, 87.0482°W
Report Text: KDCY 201455Z AUTO 10004KT 7SM SCT008 OVC050 M01/M03 A3030 RMK AO2 T10061035
Loading
Personal Weather Stations






























Interactive Weather Map New forecast layout! Learn more

10-Day Weather Forecast

Advertisements
Track Severe Weather on mobile